createdAt,value
2022-12-23T00:03:22.554Z,94.54
2022-12-23T00:08:24.649Z,93.98
2022-12-23T00:13:44.811Z,94.05
2022-12-23T00:18:46.488Z,93.61
2022-12-23T00:23:49.376Z,93.23
2022-12-23T00:28:51.949Z,93.24
2022-12-23T00:33:54.373Z,92.91
2022-12-23T00:39:15.914Z,92.64
2022-12-23T00:44:17.616Z,92.51
2022-12-23T00:49:38.737Z,91.99
2022-12-23T00:54:40.620Z,92.55
2022-12-23T00:59:42.257Z,92.77
2022-12-23T01:05:10.246Z,92.10
2022-12-23T01:10:11.884Z,92.36
2022-12-23T01:15:13.491Z,92.54
2022-12-23T01:20:15.162Z,92.04
2022-12-23T01:25:17.189Z,91.90
2022-12-23T01:30:18.948Z,91.99
2022-12-23T01:35:20.567Z,91.96
2022-12-23T01:40:22.334Z,91.41
2022-12-23T01:45:28.447Z,92.03
2022-12-23T01:50:48.336Z,91.72
2022-12-23T01:55:56.571Z,91.73
2022-12-23T02:01:17.644Z,91.66
2022-12-23T02:06:41.591Z,91.19
2022-12-23T02:11:56.565Z,91.56
2022-12-23T02:17:15.045Z,91.71
2022-12-23T02:22:44.623Z,91.09
2022-12-23T02:28:43.873Z,91.10
2022-12-23T02:34:14.932Z,91.25
2022-12-23T02:39:24.420Z,91.65
2022-12-23T02:44:40.611Z,91.23
2022-12-23T02:49:47.644Z,90.68
2022-12-23T02:54:53.488Z,90.74
2022-12-23T02:59:57.060Z,90.55
2022-12-23T03:05:00.901Z,91.33
2022-12-23T03:10:17.296Z,90.71
2022-12-23T03:15:56.277Z,91.24
2022-12-23T03:21:07.194Z,91.33
2022-12-23T03:26:16.458Z,90.88
2022-12-23T03:31:24.487Z,90.44
2022-12-23T03:36:31.241Z,90.96
2022-12-23T03:41:39.420Z,90.82
2022-12-23T03:46:44.886Z,89.65
2022-12-23T03:51:56.428Z,89.10
2022-12-23T03:57:03.451Z,88.42
2022-12-23T04:02:31.804Z,87.94
2022-12-23T04:07:53.419Z,87.09
2022-12-23T04:12:55.320Z,86.58
2022-12-23T04:17:58.045Z,85.96
2022-12-23T04:22:59.701Z,85.00
2022-12-23T04:28:01.338Z,84.51
2022-12-23T04:33:03.421Z,84.08
2022-12-23T04:38:05.147Z,84.11
2022-12-23T04:43:06.775Z,84.30
2022-12-23T04:48:09.335Z,84.12
2022-12-23T04:53:11.019Z,83.98
2022-12-23T04:58:13.009Z,83.63
2022-12-23T05:03:14.760Z,83.67
2022-12-23T05:08:16.479Z,83.45
2022-12-23T05:13:18.112Z,83.86
2022-12-23T05:18:20.178Z,83.81
2022-12-23T05:23:21.837Z,84.22
2022-12-23T05:28:23.885Z,83.89
2022-12-23T05:33:26.051Z,84.03
2022-12-23T05:38:28.142Z,83.62
2022-12-23T05:43:29.787Z,83.29
2022-12-23T05:48:31.514Z,83.47
2022-12-23T05:53:33.158Z,82.86
2022-12-23T05:58:34.810Z,83.06
2022-12-23T06:03:36.657Z,82.59
2022-12-23T06:08:38.378Z,82.89
2022-12-23T06:13:40.420Z,82.68
2022-12-23T06:18:42.651Z,82.60
2022-12-23T06:23:44.482Z,82.34
2022-12-23T06:28:46.144Z,82.03
2022-12-23T06:33:47.749Z,82.33
2022-12-23T06:38:49.421Z,82.72
2022-12-23T06:43:54.236Z,82.22
2022-12-23T06:48:56.301Z,84.70
2022-12-23T06:53:59.741Z,86.00
2022-12-23T06:59:01.433Z,87.99
2022-12-23T07:04:03.639Z,88.66
2022-12-23T07:09:06.254Z,89.17
2022-12-23T07:14:07.906Z,89.10
2022-12-23T07:19:09.898Z,89.24
2022-12-23T07:24:11.618Z,90.02
2022-12-23T07:29:13.281Z,90.70
2022-12-23T07:34:14.953Z,90.05
2022-12-23T07:39:16.595Z,90.22
2022-12-23T07:44:18.264Z,90.07
2022-12-23T07:49:19.964Z,90.01
2022-12-23T07:54:21.628Z,89.36
2022-12-23T07:59:25.800Z,90.25
2022-12-23T08:04:27.443Z,89.92
2022-12-23T08:09:29.068Z,90.27
2022-12-23T08:14:30.689Z,89.99
2022-12-23T08:19:32.623Z,88.50
2022-12-23T08:24:34.281Z,88.18
2022-12-23T08:29:36.529Z,87.49
2022-12-23T08:34:38.442Z,86.92
2022-12-23T08:39:40.100Z,86.88
2022-12-23T08:44:41.727Z,86.80
2022-12-23T08:49:43.345Z,86.77
2022-12-23T08:54:44.960Z,86.34
2022-12-23T08:59:47.074Z,86.05
2022-12-23T09:04:48.728Z,86.27
2022-12-23T09:09:50.661Z,85.41
2022-12-23T09:14:52.433Z,85.48
2022-12-23T09:19:54.485Z,85.33
2022-12-23T09:25:01.272Z,84.84
2022-12-23T09:30:07.039Z,84.48
2022-12-23T09:35:08.808Z,84.71
2022-12-23T09:40:14.891Z,84.95
2022-12-23T09:45:35.571Z,84.15
2022-12-23T09:50:42.141Z,84.29
2022-12-23T09:56:14.728Z,84.80
2022-12-23T10:01:20.944Z,84.15
2022-12-23T10:06:25.926Z,84.16
2022-12-23T10:11:41.187Z,83.26
2022-12-23T10:16:45.847Z,82.69
2022-12-23T10:21:53.120Z,82.53
2022-12-23T10:27:01.505Z,82.16
2022-12-23T10:32:15.410Z,81.76
2022-12-23T10:37:28.835Z,81.31
2022-12-23T10:42:39.505Z,81.54
2022-12-23T10:47:44.139Z,81.33
2022-12-23T10:52:46.297Z,81.00
2022-12-23T10:57:48.019Z,81.45
2022-12-23T11:02:50.873Z,81.24
2022-12-23T11:07:52.605Z,81.09
2022-12-23T11:12:54.606Z,81.12
2022-12-23T11:18:04.383Z,80.60
2022-12-23T11:23:24.290Z,80.79
2022-12-23T11:28:26.646Z,80.40
2022-12-23T11:33:51.960Z,80.49
2022-12-23T11:39:07.123Z,80.33
2022-12-23T11:44:24.653Z,79.47
2022-12-23T11:49:33.116Z,79.78
2022-12-23T11:54:35.001Z,79.52
2022-12-23T11:59:39.596Z,78.82
2022-12-23T12:04:41.780Z,79.07
2022-12-23T12:09:45.771Z,78.71
2022-12-23T12:14:50.644Z,78.72
2022-12-23T12:20:16.863Z,78.65
2022-12-23T12:25:22.406Z,78.09
2022-12-23T12:30:24.105Z,78.33
2022-12-23T12:35:31.962Z,78.44
2022-12-23T12:40:41.381Z,77.82
2022-12-23T12:45:52.246Z,78.34
2022-12-23T12:51:22.801Z,78.21
2022-12-23T12:56:32.140Z,78.75
2022-12-23T13:01:50.012Z,79.06
2022-12-23T13:07:18.368Z,79.16
2022-12-23T13:12:35.253Z,78.87
2022-12-23T13:17:43.850Z,79.37
2022-12-23T13:22:50.161Z,79.61
2022-12-23T13:28:20.360Z,80.13
2022-12-23T13:33:22.073Z,80.37
2022-12-23T13:38:54.679Z,80.65
2022-12-23T13:43:57.982Z,80.83
2022-12-23T13:49:01.853Z,81.04
2022-12-23T13:54:20.893Z,81.16
2022-12-23T13:59:22.576Z,81.08
2022-12-23T14:04:48.344Z,81.23
2022-12-23T14:09:58.689Z,81.24
2022-12-23T14:15:39.773Z,81.29
2022-12-23T14:20:59.060Z,80.98
2022-12-23T14:26:09.275Z,80.92
2022-12-23T14:31:31.213Z,80.66
2022-12-23T14:36:33.512Z,80.87
2022-12-23T14:41:54.515Z,81.27
2022-12-23T14:46:57.911Z,81.53
2022-12-23T14:52:38.056Z,82.05
2022-12-23T14:57:44.423Z,81.87
2022-12-23T15:02:46.140Z,81.99
2022-12-23T15:07:48.111Z,82.41
2022-12-23T15:12:56.014Z,82.82
2022-12-23T15:18:06.220Z,82.37
2022-12-23T15:23:14.867Z,82.60
2022-12-23T15:28:22.187Z,82.12
2022-12-23T15:34:01.557Z,82.10
2022-12-23T15:38:47.682Z,82.07
2022-12-23T15:43:50.056Z,82.06
2022-12-23T15:48:51.752Z,82.92
2022-12-23T15:53:56.236Z,82.75
2022-12-23T15:58:58.346Z,83.04
2022-12-23T16:04:00.468Z,83.30
2022-12-23T16:09:05.851Z,83.20
2022-12-23T16:14:40.237Z,83.16
2022-12-23T16:19:48.920Z,83.17
2022-12-23T16:25:01.237Z,83.21
2022-12-23T16:30:11.491Z,82.70
2022-12-23T16:35:34.046Z,83.20
2022-12-23T16:40:35.816Z,82.79
2022-12-23T16:45:38.143Z,82.85
2022-12-23T16:50:39.879Z,82.44
2022-12-23T16:55:46.792Z,82.17
2022-12-23T17:00:52.714Z,82.13
2022-12-23T17:05:54.681Z,82.76
2022-12-23T17:10:57.039Z,82.72
2022-12-23T17:15:58.750Z,82.85
2022-12-23T17:21:00.371Z,83.34
2022-12-23T17:26:02.002Z,84.03
2022-12-23T17:31:08.648Z,84.64
2022-12-23T17:36:14.277Z,84.58
2022-12-23T17:41:36.259Z,84.95
2022-12-23T17:46:40.369Z,85.56
2022-12-23T17:51:42.511Z,86.26
2022-12-23T17:56:44.194Z,86.62
2022-12-23T18:01:46.139Z,86.78
2022-12-23T18:06:47.836Z,87.36
2022-12-23T18:11:49.553Z,87.90
2022-12-23T18:16:51.198Z,88.37
2022-12-23T18:21:52.994Z,88.79
2022-12-23T18:26:54.611Z,89.01
2022-12-23T18:31:56.241Z,89.70
2022-12-23T18:36:57.989Z,90.75
2022-12-23T18:41:59.825Z,91.16
2022-12-23T18:47:01.499Z,91.24
2022-12-23T18:52:04.965Z,91.63
2022-12-23T18:57:07.289Z,92.39
2022-12-23T19:02:10.945Z,92.89
2022-12-23T19:07:13.656Z,93.37
2022-12-23T19:12:15.398Z,93.92
2022-12-23T19:17:17.534Z,94.16
2022-12-23T19:22:19.274Z,93.95
2022-12-23T19:27:20.916Z,94.92
2022-12-23T19:32:22.979Z,94.58
2022-12-23T19:37:24.735Z,94.74
2022-12-23T19:42:26.974Z,95.26
2022-12-23T19:47:28.573Z,95.30
2022-12-23T19:52:30.200Z,95.83
2022-12-23T19:57:31.887Z,96.10
2022-12-23T20:02:33.687Z,95.97
2022-12-23T20:07:36.302Z,96.29
2022-12-23T20:12:39.350Z,96.22
2022-12-23T20:17:41.629Z,96.47
2022-12-23T20:22:43.285Z,95.96
2022-12-23T20:27:44.921Z,95.98
2022-12-23T20:32:46.531Z,96.42
2022-12-23T20:37:48.219Z,96.61
2022-12-23T20:42:51.180Z,96.22
2022-12-23T20:47:54.070Z,96.29
2022-12-23T20:52:55.798Z,96.07
2022-12-23T20:57:57.418Z,96.30
2022-12-23T21:02:59.053Z,96.36
2022-12-23T21:08:01.862Z,96.14
2022-12-23T21:13:04.245Z,95.92
2022-12-23T21:18:05.881Z,95.77
2022-12-23T21:23:07.579Z,96.33
2022-12-23T21:28:09.763Z,95.57
2022-12-23T21:33:11.422Z,96.10
2022-12-23T21:38:13.073Z,95.55
2022-12-23T21:43:15.201Z,95.76
2022-12-23T21:48:19.637Z,95.71
2022-12-23T21:53:21.400Z,95.68
2022-12-23T21:58:23.027Z,95.59
2022-12-23T22:03:24.999Z,95.93
2022-12-23T22:08:26.660Z,95.88
2022-12-23T22:13:28.595Z,95.62
2022-12-23T22:18:31.134Z,95.91
2022-12-23T22:23:33.035Z,96.02
2022-12-23T22:28:36.360Z,96.36
2022-12-23T22:33:40.922Z,95.97
2022-12-23T22:38:43.008Z,96.22
2022-12-23T22:43:44.870Z,96.10
2022-12-23T22:48:46.922Z,96.28
2022-12-23T22:53:48.983Z,96.61
2022-12-23T22:58:51.671Z,95.53
2022-12-23T23:03:59.280Z,95.12
2022-12-23T23:09:01.635Z,95.46
2022-12-23T23:14:03.810Z,92.61
2022-12-23T23:19:06.340Z,90.78
2022-12-23T23:24:08.433Z,91.71
2022-12-23T23:29:10.096Z,92.97
2022-12-23T23:34:12.479Z,92.52
2022-12-23T23:39:14.213Z,92.36
2022-12-23T23:44:16.266Z,92.15
2022-12-23T23:49:17.928Z,91.58
2022-12-23T23:54:19.626Z,91.38
2022-12-23T23:59:21.257Z,89.60
